createdAt,value
2023-04-18T14:21:29.181Z,26.09
2023-04-18T14:23:56.539Z,27.16
2023-04-18T14:26:23.824Z,27.03
2023-04-18T14:28:51.233Z,26.09
2023-04-18T14:31:18.592Z,25.43
2023-04-18T14:33:46.282Z,26.36
2023-04-18T14:36:15.141Z,26.69
2023-04-18T14:38:42.526Z,26.41
2023-04-18T14:41:09.671Z,25.13
2023-04-18T14:43:37.005Z,25.51
2023-04-18T14:46:10.492Z,26.06
2023-04-18T14:48:37.618Z,26.36
2023-04-18T14:51:04.740Z,27.25
2023-04-18T14:53:31.830Z,26.21
2023-04-18T14:55:58.916Z,25.14
2023-04-18T14:58:26.081Z,24.23
2023-04-18T15:00:53.164Z,25.92
2023-04-18T15:03:20.408Z,26.78
2023-04-18T15:05:48.972Z,28.12
2023-04-18T15:08:16.223Z,29.37
2023-04-18T15:10:44.448Z,31.00
2023-04-18T15:13:11.570Z,29.83
2023-04-18T15:15:39.779Z,31.77
2023-04-18T15:18:08.517Z,32.40
2023-04-18T15:20:37.112Z,33.25
2023-04-18T15:23:04.319Z,31.24
2023-04-18T15:25:31.509Z,31.25
2023-04-18T15:27:58.685Z,32.28
2023-04-18T15:30:25.876Z,30.77
2023-04-18T15:32:53.976Z,29.46
2023-04-18T15:35:21.239Z,30.60
2023-04-18T15:37:49.205Z,31.01
2023-04-18T15:40:18.130Z,29.89
2023-04-18T15:42:45.983Z,29.50
2023-04-18T15:45:13.252Z,28.69
2023-04-18T15:47:41.372Z,28.22
2023-04-18T15:50:09.134Z,26.72
2023-04-18T15:52:36.625Z,25.68
2023-04-18T15:55:04.986Z,24.65
2023-04-18T15:57:32.500Z,23.63
2023-04-18T15:59:59.788Z,23.15
2023-04-18T16:02:27.186Z,22.19
2023-04-18T16:04:54.500Z,21.97
2023-04-18T16:07:21.768Z,21.38
2023-04-18T16:09:48.898Z,21.11
2023-04-18T16:12:16.276Z,20.82
2023-04-18T16:14:43.400Z,20.39
2023-04-18T16:17:10.486Z,19.82
2023-04-18T16:19:38.873Z,19.66
2023-04-18T16:22:07.089Z,19.67
2023-04-18T16:24:34.297Z,19.39
2023-04-18T16:27:01.478Z,19.15
2023-04-18T16:29:28.677Z,18.85
2023-04-18T16:36:27.482Z,18.43
2023-04-18T16:38:54.615Z,18.36
2023-04-18T16:41:21.698Z,18.22
2023-04-18T16:43:48.817Z,18.06
2023-04-18T16:46:16.097Z,18.03
2023-04-18T16:48:45.147Z,17.83
2023-04-18T16:51:13.122Z,17.79
2023-04-18T16:53:40.339Z,17.79
2023-04-18T16:56:08.899Z,17.88
2023-04-18T16:58:36.079Z,17.86
2023-04-18T17:01:03.281Z,17.81
2023-04-18T17:03:30.526Z,17.75
2023-04-18T17:05:57.803Z,17.64
2023-04-18T17:08:27.011Z,17.67
2023-04-18T17:10:54.682Z,17.77
2023-04-18T17:13:26.691Z,17.68
2023-04-18T17:15:53.989Z,17.68
2023-04-18T17:18:21.285Z,17.57
2023-04-18T17:20:48.370Z,17.37
2023-04-18T17:23:15.458Z,17.22
2023-04-18T17:25:42.682Z,17.07
2023-04-18T17:28:09.838Z,16.87
2023-04-18T17:30:40.005Z,16.71
2023-04-18T17:33:07.476Z,16.56
2023-04-18T17:35:34.701Z,16.30
2023-04-18T17:38:02.004Z,16.18
2023-04-18T17:40:29.109Z,15.98
2023-04-18T17:42:56.611Z,15.87
2023-04-18T17:45:24.061Z,15.72
2023-04-18T17:47:51.310Z,15.60
2023-04-18T17:50:18.544Z,15.48
2023-04-18T17:52:46.442Z,15.36
2023-04-18T17:55:13.755Z,15.21
2023-04-18T17:57:40.901Z,15.09
2023-04-18T18:00:11.562Z,14.95
2023-04-18T18:02:42.392Z,14.83
2023-04-18T18:05:16.582Z,14.72
2023-04-18T18:07:47.503Z,14.62
2023-04-18T18:10:22.264Z,14.49
2023-04-18T18:12:49.696Z,14.40
2023-04-18T18:15:17.988Z,14.26
2023-04-18T18:17:45.137Z,14.24
2023-04-18T18:20:12.527Z,14.15
2023-04-18T18:22:39.624Z,14.11
2023-04-18T18:25:07.355Z,14.03
2023-04-18T18:27:34.479Z,13.98
2023-04-18T18:30:01.912Z,13.93
2023-04-18T18:32:29.135Z,13.85
2023-04-18T18:34:56.313Z,13.78
2023-04-18T18:37:25.418Z,13.73
2023-04-18T18:39:54.528Z,13.64
2023-04-18T18:42:22.126Z,13.55
2023-04-18T18:44:49.230Z,13.48
2023-04-18T18:47:20.169Z,13.39
2023-04-18T18:49:48.652Z,13.33
2023-04-18T18:52:15.994Z,13.29
2023-04-18T18:54:43.134Z,13.26
2023-04-18T18:57:10.250Z,13.26
2023-04-18T18:59:37.340Z,13.28
2023-04-18T19:02:04.597Z,13.27
2023-04-18T19:04:32.351Z,13.28
2023-04-18T19:06:59.653Z,13.27
2023-04-18T19:09:27.303Z,13.25
2023-04-18T19:11:55.046Z,13.15
2023-04-18T19:14:22.255Z,13.10
2023-04-18T19:16:49.816Z,13.03
2023-04-18T19:19:17.456Z,12.99
2023-04-18T19:21:47.436Z,12.96
2023-04-18T19:24:14.779Z,12.82
2023-04-18T19:26:42.305Z,12.70
2023-04-18T19:29:10.189Z,12.67
2023-04-18T19:31:37.334Z,12.63
2023-04-18T19:34:04.572Z,12.58
2023-04-18T19:36:32.088Z,12.56
2023-04-18T19:38:59.257Z,12.56
2023-04-18T19:41:26.566Z,12.54
2023-04-18T19:43:53.679Z,12.54
2023-04-18T19:46:20.807Z,12.49
2023-04-18T19:48:47.925Z,12.47
2023-04-18T19:51:15.023Z,12.44
2023-04-18T19:53:42.132Z,12.43
2023-04-18T19:56:11.181Z,12.38
2023-04-18T19:58:44.981Z,12.30
2023-04-18T20:01:13.914Z,12.21
2023-04-18T20:03:41.726Z,12.12
2023-04-18T20:06:09.231Z,12.04
2023-04-18T20:08:45.084Z,12.04
2023-04-18T20:11:16.330Z,11.99
2023-04-18T20:13:43.518Z,11.81
2023-04-18T20:16:12.152Z,11.78
2023-04-18T20:18:41.731Z,11.73
2023-04-18T20:21:11.526Z,11.74
2023-04-18T20:23:41.958Z,11.69
2023-04-18T20:26:09.312Z,11.66
2023-04-18T20:28:37.821Z,11.64
2023-04-18T20:31:05.133Z,11.59
2023-04-18T20:33:32.866Z,11.58
2023-04-18T20:36:00.004Z,11.54
2023-04-18T20:38:29.377Z,11.49
2023-04-18T20:40:58.647Z,11.46
2023-04-18T20:43:26.722Z,11.42
2023-04-18T20:45:54.525Z,11.45
2023-04-18T20:48:21.797Z,11.43
2023-04-18T20:50:51.397Z,11.44
2023-04-18T20:53:26.037Z,11.45
2023-04-18T20:55:53.183Z,11.43
2023-04-18T20:58:20.644Z,11.40
2023-04-18T21:00:48.872Z,11.39
2023-04-18T21:03:16.789Z,11.34
2023-04-18T21:05:44.829Z,11.33
2023-04-18T21:08:12.086Z,11.29
2023-04-18T21:10:39.695Z,11.27
2023-04-18T21:13:07.588Z,11.28
2023-04-18T21:15:35.584Z,11.25
2023-04-18T21:18:02.913Z,11.21
2023-04-18T21:20:30.140Z,11.19
2023-04-18T21:22:57.301Z,11.15
2023-04-18T21:25:24.429Z,11.14
2023-04-18T21:27:51.806Z,11.07
2023-04-18T21:30:19.586Z,11.08
2023-04-18T21:32:48.934Z,11.02
2023-04-18T21:35:19.373Z,10.88
2023-04-18T21:37:47.321Z,10.83
2023-04-18T21:40:14.703Z,10.75
2023-04-18T21:42:42.027Z,10.65
2023-04-18T21:45:10.840Z,10.53
2023-04-18T21:47:38.349Z,10.47
2023-04-18T21:50:06.111Z,10.36
2023-04-18T21:52:33.289Z,10.20
2023-04-18T21:55:00.496Z,10.16
2023-04-18T21:57:27.693Z,10.08
2023-04-18T21:59:56.963Z,10.02
2023-04-18T22:02:25.345Z,9.97
2023-04-18T22:04:52.652Z,9.88
2023-04-18T22:07:19.996Z,9.80
2023-04-18T22:09:47.200Z,9.75
2023-04-18T22:12:14.314Z,9.77
2023-04-18T22:14:44.480Z,9.78
2023-04-18T22:17:11.601Z,9.83
2023-04-18T22:19:39.592Z,9.84
2023-04-18T22:22:06.722Z,9.84
2023-04-18T22:24:33.832Z,9.83
2023-04-18T22:27:01.251Z,9.84
2023-04-18T22:29:28.401Z,9.88
2023-04-18T22:31:55.690Z,9.89
2023-04-18T22:34:22.760Z,10.01
2023-04-18T22:36:49.853Z,9.91
2023-04-18T22:39:16.939Z,9.93
2023-04-18T22:41:44.076Z,9.98
2023-04-18T22:44:11.169Z,9.99
2023-04-18T22:46:39.273Z,9.98
2023-04-18T22:49:06.384Z,10.03
2023-04-18T22:51:34.139Z,10.10
2023-04-18T22:54:01.233Z,10.09
2023-04-18T22:56:28.440Z,10.15
2023-04-18T22:58:55.580Z,10.14
2023-04-18T23:01:22.691Z,10.10
2023-04-18T23:03:50.015Z,10.15
2023-04-18T23:06:17.256Z,10.17
2023-04-18T23:08:44.338Z,10.11
2023-04-18T23:11:11.521Z,10.17
2023-04-18T23:13:38.601Z,10.23
2023-04-18T23:16:06.266Z,10.27
2023-04-18T23:18:33.432Z,10.24
2023-04-18T23:21:00.998Z,10.22
2023-04-18T23:23:28.101Z,10.25
2023-04-18T23:25:55.329Z,10.32
2023-04-18T23:28:22.599Z,10.28
2023-04-18T23:30:50.259Z,10.24
2023-04-18T23:33:17.419Z,10.22
2023-04-18T23:35:44.519Z,10.22
2023-04-18T23:38:11.720Z,10.19
2023-04-18T23:40:38.796Z,10.22
2023-04-18T23:43:05.907Z,10.16
2023-04-18T23:45:33.034Z,10.18
2023-04-18T23:48:00.247Z,10.22
2023-04-18T23:50:27.494Z,10.25
2023-04-18T23:52:54.569Z,10.24
2023-04-18T23:55:21.809Z,10.22
2023-04-18T23:57:48.891Z,10.18
